createdAt,value
2017-09-22T00:00:27.482Z,13.97
2017-09-22T00:01:27.503Z,13.87
2017-09-22T00:02:27.524Z,13.87
2017-09-22T00:03:27.543Z,13.85
2017-09-22T00:04:27.569Z,13.78
2017-09-22T00:05:27.585Z,13.83
2017-09-22T00:06:27.601Z,13.78
2017-09-22T00:07:27.634Z,13.93
2017-09-22T00:08:27.639Z,13.83
2017-09-22T00:09:27.978Z,13.92
2017-09-22T00:10:27.694Z,13.83
2017-09-22T00:11:27.706Z,13.85
2017-09-22T00:12:27.727Z,13.79
2017-09-22T00:13:27.797Z,13.89
2017-09-22T00:14:27.971Z,13.81
2017-09-22T00:15:27.793Z,13.83
2017-09-22T00:16:27.804Z,13.83
2017-09-22T00:17:28.135Z,13.83
2017-09-22T00:18:28.157Z,13.81
2017-09-22T00:19:28.181Z,13.78
2017-09-22T00:20:27.882Z,13.87
2017-09-22T00:21:27.905Z,13.92
2017-09-22T00:22:27.925Z,13.83
2017-09-22T00:23:27.953Z,13.68
2017-09-22T00:24:27.971Z,13.68
2017-09-22T00:25:27.991Z,13.63
2017-09-22T00:26:28.015Z,13.65
2017-09-22T00:27:28.036Z,13.63
2017-09-22T00:28:28.053Z,13.62
2017-09-22T00:29:28.066Z,13.71
2017-09-22T00:30:28.085Z,13.72
2017-09-22T00:31:28.111Z,13.75
2017-09-22T00:32:28.448Z,13.7
2017-09-22T00:33:28.146Z,13.63
2017-09-22T00:34:28.175Z,13.71
2017-09-22T00:35:28.188Z,13.56
2017-09-22T00:36:28.208Z,13.57
2017-09-22T00:37:28.228Z,13.62
2017-09-22T00:38:28.247Z,13.56
2017-09-22T00:39:28.579Z,13.59
2017-09-22T00:40:28.293Z,13.59
2017-09-22T00:41:28.311Z,13.46
2017-09-22T00:42:28.330Z,13.49
2017-09-22T00:43:28.664Z,13.49
2017-09-22T00:44:28.369Z,13.5
2017-09-22T00:45:28.392Z,13.46
2017-09-22T00:46:28.724Z,13.46
2017-09-22T00:47:28.750Z,13.37
2017-09-22T00:48:28.503Z,13.41
2017-09-22T00:49:28.469Z,13.3
2017-09-22T00:50:28.489Z,13.33
2017-09-22T00:51:28.510Z,13.37
2017-09-22T00:52:28.530Z,13.38
2017-09-22T00:53:28.547Z,13.46
2017-09-22T00:54:28.570Z,13.35
2017-09-22T00:55:28.590Z,13.35
2017-09-22T00:56:28.605Z,13.37
2017-09-22T00:57:28.631Z,13.42
2017-09-22T00:58:28.658Z,13.31
2017-09-22T00:59:28.669Z,13.28
2017-09-22T01:00:28.691Z,13.27
2017-09-22T01:01:28.704Z,13.05
2017-09-22T01:02:28.737Z,12.98
2017-09-22T01:03:28.766Z,12.98
2017-09-22T01:04:28.915Z,13.05
2017-09-22T01:05:28.788Z,12.95
2017-09-22T01:06:28.808Z,12.9
2017-09-22T01:07:28.831Z,12.82
2017-09-22T01:08:28.847Z,12.93
2017-09-22T01:09:28.870Z,12.95
2017-09-22T01:10:28.886Z,13.01
2017-09-22T01:11:28.905Z,13.09
2017-09-22T01:12:28.924Z,13.11
2017-09-22T01:13:28.953Z,13.09
2017-09-22T01:14:29.277Z,13.16
2017-09-22T01:15:28.983Z,13.31
2017-09-22T01:16:29.314Z,13.09
2017-09-22T01:17:29.034Z,13.15
2017-09-22T01:18:29.049Z,13.04
2017-09-22T01:19:29.088Z,13.03
2017-09-22T01:20:29.404Z,13.01
2017-09-22T01:21:29.104Z,12.91
2017-09-22T01:22:29.122Z,12.87
2017-09-22T01:23:29.147Z,12.95
2017-09-22T01:24:29.171Z,13
2017-09-22T01:25:29.179Z,13.05
2017-09-22T01:26:29.198Z,13.04
2017-09-22T01:27:29.222Z,13.01
2017-09-22T01:28:29.251Z,13.13
2017-09-22T01:29:29.262Z,13.15
2017-09-22T01:30:29.607Z,13.16
2017-09-22T01:31:29.301Z,13.13
2017-09-22T01:32:29.322Z,13.16
2017-09-22T01:33:29.349Z,13.18
2017-09-22T01:34:29.372Z,13.13
2017-09-22T01:35:29.384Z,13.11
2017-09-22T01:36:29.406Z,13.04
2017-09-22T01:37:29.433Z,13.04
2017-09-22T01:38:29.756Z,13
2017-09-22T01:39:29.459Z,13.03
2017-09-22T01:40:29.483Z,12.95
2017-09-22T01:41:29.813Z,12.94
2017-09-22T01:42:29.830Z,12.97
2017-09-22T01:43:29.537Z,12.97
2017-09-22T01:44:29.560Z,13.05
2017-09-22T01:45:29.583Z,13.04
2017-09-22T01:46:29.647Z,13.04
2017-09-22T01:47:29.616Z,13.03
2017-09-22T01:48:29.640Z,13.03
2017-09-22T01:49:29.661Z,13.05
2017-09-22T01:50:29.677Z,13.12
2017-09-22T01:51:29.701Z,13.09
2017-09-22T01:52:29.714Z,13.15
2017-09-22T01:53:29.737Z,12.98
2017-09-22T01:54:29.757Z,12.97
2017-09-22T01:55:29.793Z,12.86
2017-09-22T01:56:29.800Z,12.83
2017-09-22T01:57:29.822Z,12.78
2017-09-22T01:58:29.840Z,12.83
2017-09-22T01:59:29.856Z,12.76
2017-09-22T02:00:29.873Z,12.93
2017-09-22T02:01:29.894Z,12.83
2017-09-22T02:02:29.917Z,12.93
2017-09-22T02:03:29.931Z,12.91
2017-09-22T02:04:29.953Z,12.93
2017-09-22T02:05:29.977Z,12.97
2017-09-22T02:06:29.998Z,12.83
2017-09-22T02:07:30.008Z,12.8
2017-09-22T02:08:30.032Z,12.82
2017-09-22T02:09:30.055Z,12.76
2017-09-22T02:10:30.077Z,12.8
2017-09-22T02:11:30.091Z,12.83
2017-09-22T02:12:30.109Z,12.91
2017-09-22T02:13:30.131Z,12.94
2017-09-22T02:14:30.150Z,12.97
2017-09-22T02:15:30.169Z,12.94
2017-09-22T02:16:30.251Z,12.83
2017-09-22T02:17:30.836Z,12.91
2017-09-22T02:18:30.229Z,12.95
2017-09-22T02:19:30.254Z,12.95
2017-09-22T02:20:30.269Z,12.91
2017-09-22T02:21:30.287Z,12.93
2017-09-22T02:22:30.312Z,12.94
2017-09-22T02:23:30.328Z,12.98
2017-09-22T02:24:30.350Z,12.79
2017-09-22T02:25:30.367Z,12.67
2017-09-22T02:26:30.402Z,12.8
2017-09-22T02:27:30.411Z,12.8
2017-09-22T02:28:30.422Z,12.82
2017-09-22T02:29:30.453Z,12.78
2017-09-22T02:30:30.470Z,12.64
2017-09-22T02:31:30.549Z,12.61
2017-09-22T02:32:30.510Z,12.54
2017-09-22T02:33:30.522Z,12.5
2017-09-22T02:34:30.549Z,12.5
2017-09-22T02:35:30.558Z,12.47
2017-09-22T02:36:30.582Z,12.37
2017-09-22T02:37:30.916Z,12.36
2017-09-22T02:38:30.622Z,12.21
2017-09-22T02:39:30.637Z,12.18
2017-09-22T02:40:30.666Z,12.22
2017-09-22T02:41:30.689Z,12.17
2017-09-22T02:42:30.700Z,12.21
2017-09-22T02:43:30.717Z,12.28
2017-09-22T02:44:30.736Z,12.24
2017-09-22T02:45:30.759Z,12.32
2017-09-22T02:46:30.831Z,12.18
2017-09-22T02:47:31.105Z,12
2017-09-22T02:48:30.816Z,11.9
2017-09-22T02:49:30.834Z,11.9
2017-09-22T02:50:30.859Z,11.9
2017-09-22T02:51:30.873Z,11.86
2017-09-22T02:52:30.889Z,11.86
2017-09-22T02:53:30.913Z,11.88
2017-09-22T02:54:30.932Z,11.97
2017-09-22T02:55:30.953Z,11.83
2017-09-22T02:56:30.972Z,11.68
2017-09-22T02:57:30.990Z,11.7
2017-09-22T02:58:31.012Z,11.81
2017-09-22T02:59:31.040Z,11.8
2017-09-22T03:00:31.049Z,11.83
2017-09-22T03:01:31.114Z,11.95
2017-09-22T03:02:31.079Z,11.86
2017-09-22T03:03:31.108Z,11.88
2017-09-22T03:04:31.123Z,11.88
2017-09-22T03:05:31.140Z,11.66
2017-09-22T03:06:31.473Z,11.66
2017-09-22T03:07:31.184Z,11.66
2017-09-22T03:08:31.195Z,11.59
2017-09-22T03:09:31.215Z,11.62
2017-09-22T03:10:31.231Z,11.62
2017-09-22T03:11:31.273Z,11.68
2017-09-22T03:12:31.276Z,11.73
2017-09-22T03:13:31.297Z,11.63
2017-09-22T03:14:31.321Z,11.62
2017-09-22T03:15:31.333Z,11.77
2017-09-22T03:16:31.361Z,11.73
2017-09-22T03:17:31.420Z,11.73
2017-09-22T03:18:31.390Z,11.69
2017-09-22T03:19:31.409Z,11.78
2017-09-22T03:20:31.427Z,11.81
2017-09-22T03:21:31.449Z,11.81
2017-09-22T03:22:31.471Z,11.75
2017-09-22T03:23:31.486Z,11.73
2017-09-22T03:24:31.503Z,11.66
2017-09-22T03:25:31.525Z,11.75
2017-09-22T03:26:31.547Z,11.8
2017-09-22T03:27:31.581Z,11.8
2017-09-22T03:28:31.580Z,11.86
2017-09-22T03:29:31.600Z,11.88
2017-09-22T03:30:31.627Z,11.84
2017-09-22T03:31:31.643Z,11.95
2017-09-22T03:32:31.713Z,11.99
2017-09-22T03:33:32.057Z,11.97
2017-09-22T03:34:31.691Z,11.99
2017-09-22T03:35:31.712Z,11.97
2017-09-22T03:36:31.731Z,12.03
2017-09-22T03:37:31.754Z,11.95
2017-09-22T03:38:31.767Z,11.87
2017-09-22T03:39:32.103Z,11.83
2017-09-22T03:40:31.813Z,11.8
2017-09-22T03:41:32.138Z,11.86
2017-09-22T03:42:32.158Z,12.02
2017-09-22T03:43:31.863Z,11.84
2017-09-22T03:44:31.886Z,12
2017-09-22T03:45:31.909Z,11.99
2017-09-22T03:46:31.917Z,11.97
2017-09-22T03:47:31.947Z,12.02
2017-09-22T03:48:31.970Z,12.04
2017-09-22T03:49:31.975Z,12.03
2017-09-22T03:50:32.046Z,11.97
2017-09-22T03:51:32.016Z,12
2017-09-22T03:52:32.035Z,11.99
2017-09-22T03:53:32.050Z,11.94
2017-09-22T03:54:32.072Z,11.99
2017-09-22T03:55:32.091Z,11.87
2017-09-22T03:56:32.110Z,11.84
2017-09-22T03:57:32.440Z,11.95
2017-09-22T03:58:32.459Z,12.03
2017-09-22T03:59:32.159Z,12
2017-09-22T04:00:32.194Z,12.06
2017-09-22T04:01:32.201Z,12.06
2017-09-22T04:02:32.259Z,12.07
2017-09-22T04:03:32.242Z,12.1
2017-09-22T04:04:32.263Z,12.06
2017-09-22T04:05:32.285Z,12.07
2017-09-22T04:06:32.299Z,12.15
2017-09-22T04:07:32.322Z,12.07
2017-09-22T04:08:32.386Z,12.09
2017-09-22T04:09:32.352Z,11.95
2017-09-22T04:10:32.375Z,11.94
2017-09-22T04:11:32.393Z,11.97
2017-09-22T04:12:32.412Z,12.12
2017-09-22T04:13:32.434Z,12.09
2017-09-22T04:14:32.448Z,12.1
2017-09-22T04:15:32.468Z,12.13
2017-09-22T04:16:32.490Z,12.07
2017-09-22T04:17:32.816Z,12.09
2017-09-22T04:18:32.527Z,12.02
2017-09-22T04:19:32.547Z,12.12
2017-09-22T04:20:32.563Z,12.1
2017-09-22T04:21:32.894Z,12.09
2017-09-22T04:22:32.600Z,12.2
2017-09-22T04:23:32.627Z,12.09
2017-09-22T04:24:33.740Z,12.09
2017-09-22T04:25:32.655Z,12.03
2017-09-22T04:26:32.678Z,12.04
2017-09-22T04:27:32.707Z,11.87
2017-09-22T04:28:32.717Z,11.91
2017-09-22T04:29:32.731Z,11.84
2017-09-22T04:30:32.758Z,11.86
2017-09-22T04:31:32.771Z,12
2017-09-22T04:32:32.794Z,11.97
2017-09-22T04:33:32.815Z,12.03
2017-09-22T04:34:32.828Z,11.83
2017-09-22T04:35:32.849Z,11.86
2017-09-22T04:36:32.874Z,11.9
2017-09-22T04:37:32.884Z,11.81
2017-09-22T04:38:32.913Z,11.73
2017-09-22T04:39:32.969Z,11.86
2017-09-22T04:40:33.250Z,11.88
2017-09-22T04:41:32.963Z,11.84
2017-09-22T04:42:33.326Z,11.87
2017-09-22T04:43:33.026Z,11.9
2017-09-22T04:44:33.017Z,11.88
2017-09-22T04:45:33.041Z,11.83
2017-09-22T04:46:33.365Z,11.9
2017-09-22T04:47:33.077Z,11.86
2017-09-22T04:48:33.102Z,11.87
2017-09-22T04:49:33.108Z,11.87
2017-09-22T04:50:33.133Z,11.91
2017-09-22T04:51:33.144Z,11.86
2017-09-22T04:52:33.172Z,11.87
2017-09-22T04:53:33.187Z,12.06
2017-09-22T04:54:33.214Z,11.86
2017-09-22T04:55:33.226Z,11.87
2017-09-22T04:56:33.249Z,11.86
2017-09-22T04:57:33.334Z,11.86
2017-09-22T04:58:33.282Z,11.81
2017-09-22T04:59:33.307Z,11.86
2017-09-22T05:00:33.322Z,11.8
2017-09-22T05:01:33.350Z,11.7
2017-09-22T05:02:33.356Z,11.69
2017-09-22T05:03:33.385Z,11.75
2017-09-22T05:04:33.393Z,11.83
2017-09-22T05:05:33.417Z,11.72
2017-09-22T05:06:33.445Z,11.75
2017-09-22T05:07:33.458Z,11.78
2017-09-22T05:08:33.468Z,11.72
2017-09-22T05:09:33.495Z,11.8
2017-09-22T05:10:33.508Z,11.84
2017-09-22T05:11:33.533Z,11.8
2017-09-22T05:12:33.549Z,11.8
2017-09-22T05:13:33.884Z,11.83
2017-09-22T05:14:33.634Z,11.77
2017-09-22T05:15:33.610Z,11.63
2017-09-22T05:16:33.623Z,11.7
2017-09-22T05:17:33.954Z,11.66
2017-09-22T05:18:33.661Z,11.62
2017-09-22T05:19:33.684Z,11.57
2017-09-22T05:20:33.706Z,11.48
2017-09-22T05:21:33.719Z,11.44
2017-09-22T05:22:34.064Z,11.5
2017-09-22T05:23:33.760Z,11.41
2017-09-22T05:24:33.777Z,11.51
2017-09-22T05:25:34.114Z,11.47
2017-09-22T05:26:33.817Z,11.5
2017-09-22T05:27:33.830Z,11.57
2017-09-22T05:28:34.159Z,11.59
2017-09-22T05:29:33.874Z,11.51
2017-09-22T05:30:33.936Z,11.65
2017-09-22T05:31:34.219Z,11.48
2017-09-22T05:32:33.932Z,11.7
2017-09-22T05:33:33.949Z,11.8
2017-09-22T05:34:33.968Z,11.87
2017-09-22T05:35:33.982Z,11.87
2017-09-22T05:36:34.008Z,11.94
2017-09-22T05:37:34.020Z,12
2017-09-22T05:38:34.038Z,12
2017-09-22T05:39:34.070Z,11.97
2017-09-22T05:40:34.083Z,11.94
2017-09-22T05:41:34.101Z,12.07
2017-09-22T05:42:34.119Z,11.99
2017-09-22T05:43:34.140Z,12.07
2017-09-22T05:44:34.166Z,12.12
2017-09-22T05:45:34.175Z,12.21
2017-09-22T05:46:34.588Z,12.18
2017-09-22T05:47:34.265Z,12.17
2017-09-22T05:48:34.234Z,12.24
2017-09-22T05:49:34.254Z,12.29
2017-09-22T05:50:34.274Z,12.21
2017-09-22T05:51:34.299Z,12.28
2017-09-22T05:52:34.311Z,12.28
2017-09-22T05:53:34.333Z,12.31
2017-09-22T05:54:34.348Z,12.31
2017-09-22T05:55:34.379Z,12.36
2017-09-22T05:56:34.699Z,12.47
2017-09-22T05:57:34.432Z,12.45
2017-09-22T05:58:34.460Z,12.47
2017-09-22T05:59:34.763Z,12.55
2017-09-22T06:00:34.466Z,12.57
2017-09-22T06:01:34.485Z,12.58
2017-09-22T06:02:34.508Z,12.68
2017-09-22T06:03:34.528Z,12.58
2017-09-22T06:04:34.606Z,12.5
2017-09-22T06:05:34.869Z,12.43
2017-09-22T06:06:34.582Z,12.47
2017-09-22T06:07:34.600Z,12.47
2017-09-22T06:08:34.619Z,12.39
2017-09-22T06:09:35.262Z,12.5
2017-09-22T06:10:34.973Z,12.58
2017-09-22T06:11:34.680Z,12.6
2017-09-22T06:12:34.712Z,12.61
2017-09-22T06:13:34.720Z,12.67
2017-09-22T06:14:34.733Z,12.72
2017-09-22T06:15:35.069Z,12.68
2017-09-22T06:16:34.771Z,12.6
2017-09-22T06:17:34.801Z,12.61
2017-09-22T06:18:34.808Z,12.55
2017-09-22T06:19:35.312Z,12.79
2017-09-22T06:20:34.850Z,12.8
2017-09-22T06:21:34.865Z,12.8
2017-09-22T06:22:35.202Z,12.79
2017-09-22T06:23:34.917Z,12.8
2017-09-22T06:24:34.928Z,12.79
2017-09-22T06:25:34.952Z,12.91
2017-09-22T06:26:34.970Z,12.8
2017-09-22T06:27:34.997Z,12.83
2017-09-22T06:28:35.013Z,12.91
2017-09-22T06:29:35.033Z,13.01
2017-09-22T06:30:35.045Z,13.12
2017-09-22T06:31:35.065Z,13.13
2017-09-22T06:32:35.094Z,13.15
2017-09-22T06:33:35.105Z,13.28
2017-09-22T06:34:35.125Z,13.27
2017-09-22T06:35:35.148Z,13.27
2017-09-22T06:36:35.214Z,13.33
2017-09-22T06:37:35.184Z,13.3
2017-09-22T06:38:35.210Z,13.28
2017-09-22T06:39:35.232Z,13.3
2017-09-22T06:40:35.249Z,13.33
2017-09-22T06:41:35.264Z,13.37
2017-09-22T06:42:35.594Z,13.28
2017-09-22T06:43:35.308Z,13.27
2017-09-22T06:44:35.321Z,13.35
2017-09-22T06:45:35.359Z,13.31
2017-09-22T06:46:35.368Z,13.53
2017-09-22T06:47:35.392Z,13.59
2017-09-22T06:48:35.425Z,13.7
2017-09-22T06:49:35.429Z,13.67
2017-09-22T06:50:35.448Z,13.7
2017-09-22T06:51:35.522Z,13.74
2017-09-22T06:52:35.806Z,13.83
2017-09-22T06:53:35.506Z,13.78
2017-09-22T06:54:35.524Z,13.87
2017-09-22T06:55:35.553Z,13.85
2017-09-22T06:56:35.570Z,13.83
2017-09-22T06:57:35.594Z,13.78
2017-09-22T06:58:35.618Z,13.83
2017-09-22T06:59:35.632Z,13.79
2017-09-22T07:00:35.650Z,13.96
2017-09-22T07:01:35.670Z,13.93
2017-09-22T07:02:35.999Z,13.93
2017-09-22T07:03:35.712Z,14.07
2017-09-22T07:04:35.746Z,13.95
2017-09-22T07:05:35.752Z,14.12
2017-09-22T07:06:35.819Z,13.99
2017-09-22T07:07:36.106Z,13.99
2017-09-22T07:08:35.816Z,13.97
2017-09-22T07:09:36.143Z,13.9
2017-09-22T07:10:35.859Z,13.83
2017-09-22T07:11:35.871Z,13.83
2017-09-22T07:12:35.900Z,13.86
2017-09-22T07:13:35.916Z,13.86
2017-09-22T07:14:35.935Z,13.9
2017-09-22T07:15:35.959Z,13.86
2017-09-22T07:16:35.971Z,13.77
2017-09-22T07:17:35.994Z,13.83
2017-09-22T07:18:36.018Z,13.86
2017-09-22T07:19:36.033Z,13.65
2017-09-22T07:20:36.379Z,13.68
2017-09-22T07:21:36.072Z,13.7
2017-09-22T07:22:36.098Z,13.67
2017-09-22T07:23:36.116Z,13.89
2017-09-22T07:24:36.136Z,13.81
2017-09-22T07:25:36.158Z,13.85
2017-09-22T07:26:36.176Z,13.83
2017-09-22T07:27:36.201Z,13.96
2017-09-22T07:28:36.218Z,14.04
2017-09-22T07:29:36.559Z,14.22
2017-09-22T07:30:36.261Z,14.32
2017-09-22T07:31:36.282Z,14.44
2017-09-22T07:32:36.299Z,14.48
2017-09-22T07:33:36.319Z,14.78
2017-09-22T07:34:36.343Z,14.82
2017-09-22T07:35:36.368Z,14.96
2017-09-22T07:36:36.383Z,14.96
2017-09-22T07:37:36.404Z,14.97
2017-09-22T07:38:36.530Z,15.07
2017-09-22T07:39:36.448Z,15.24
2017-09-22T07:40:36.467Z,15.27
2017-09-22T07:41:36.493Z,15.36
2017-09-22T07:42:36.512Z,15.4
2017-09-22T07:43:36.525Z,15.57
2017-09-22T07:44:36.548Z,15.67
2017-09-22T07:45:36.577Z,15.82
2017-09-22T07:46:36.600Z,15.92
2017-09-22T07:47:36.920Z,16.09
2017-09-22T07:48:36.638Z,16.2
2017-09-22T07:49:36.652Z,16.17
2017-09-22T07:50:36.682Z,16.33
2017-09-22T07:51:36.706Z,16.54
2017-09-22T07:52:36.720Z,16.61
2017-09-22T07:53:36.790Z,16.71
2017-09-22T07:54:36.774Z,16.64
2017-09-22T07:55:36.786Z,16.78
2017-09-22T07:56:36.810Z,16.87
2017-09-22T07:57:36.828Z,16.9
2017-09-22T07:58:36.856Z,16.69
2017-09-22T07:59:36.872Z,16.68
2017-09-22T08:00:36.895Z,16.43
2017-09-22T08:01:36.917Z,16.51
2017-09-22T08:02:36.945Z,16.65
2017-09-22T08:03:36.962Z,16.65
2017-09-22T08:04:36.997Z,16.66
2017-09-22T08:05:37.011Z,16.75
2017-09-22T08:06:37.028Z,16.65
2017-09-22T08:07:37.368Z,16.74
2017-09-22T08:08:37.069Z,16.74
2017-09-22T08:09:37.470Z,16.96
2017-09-22T08:10:37.121Z,17.09
2017-09-22T08:11:37.141Z,17.09
2017-09-22T08:12:37.161Z,17.15
2017-09-22T08:13:37.185Z,17.15
2017-09-22T08:14:37.213Z,17.12
2017-09-22T08:15:37.231Z,16.71
2017-09-22T08:16:37.255Z,16.79
2017-09-22T08:17:37.280Z,16.97
2017-09-22T08:18:37.309Z,17.08
2017-09-22T08:19:37.634Z,17.33
2017-09-22T08:20:37.344Z,17.44
2017-09-22T08:21:37.374Z,17.42
2017-09-22T08:22:37.390Z,17.46
2017-09-22T08:23:37.414Z,17.46
2017-09-22T08:24:37.443Z,17.46
2017-09-22T08:25:37.772Z,17.36
2017-09-22T08:26:37.483Z,17.19
2017-09-22T08:27:37.509Z,17.06
2017-09-22T08:28:37.582Z,17.06
2017-09-22T08:29:37.580Z,17.11
2017-09-22T08:30:37.574Z,17.29
2017-09-22T08:31:37.917Z,17.36
2017-09-22T08:32:37.631Z,17.36
2017-09-22T08:33:37.648Z,17.54
2017-09-22T08:34:37.981Z,17.64
2017-09-22T08:35:37.717Z,17.64
2017-09-22T08:36:37.717Z,17.68
2017-09-22T08:37:37.743Z,17.86
2017-09-22T08:38:37.760Z,17.97
2017-09-22T08:39:38.112Z,18.2
2017-09-22T08:40:37.806Z,18.25
2017-09-22T08:41:37.837Z,18.4
2017-09-22T08:42:37.856Z,18.62
2017-09-22T08:43:37.879Z,18.75
2017-09-22T08:44:37.899Z,18.86
2017-09-22T08:45:37.977Z,18.78
2017-09-22T08:46:37.948Z,18.83
2017-09-22T08:47:37.975Z,18.98
2017-09-22T08:48:37.999Z,19.09
2017-09-22T08:49:38.023Z,19.15
2017-09-22T08:50:38.049Z,19.12
2017-09-22T08:51:38.067Z,18.93
2017-09-22T08:52:38.098Z,18.93
2017-09-22T08:53:38.117Z,19.09
2017-09-22T08:54:38.451Z,19.16
2017-09-22T08:55:38.162Z,19.16
2017-09-22T08:56:38.190Z,19.4
2017-09-22T08:57:38.211Z,19.64
2017-09-22T08:58:38.238Z,19.77
2017-09-22T08:59:38.264Z,19.85
2017-09-22T09:00:38.304Z,20.09
2017-09-22T09:01:38.411Z,20.32
2017-09-22T09:02:38.341Z,20.26
2017-09-22T09:03:38.671Z,20.37
2017-09-22T09:04:38.379Z,20.34
2017-09-22T09:05:38.407Z,20.32
2017-09-22T09:06:38.437Z,20.32
2017-09-22T09:07:38.482Z,20.18
2017-09-22T09:08:38.481Z,20
2017-09-22T09:09:38.509Z,19.95
2017-09-22T09:10:38.846Z,19.74
2017-09-22T09:11:38.610Z,19.66
2017-09-22T09:12:38.586Z,19.71
2017-09-22T09:13:38.602Z,19.88
2017-09-22T09:14:38.636Z,20.06
2017-09-22T09:15:38.663Z,19.88
2017-09-22T09:16:38.680Z,19.99
2017-09-22T09:17:38.701Z,20.16
2017-09-22T09:18:39.048Z,20.24
2017-09-22T09:19:38.751Z,20.34
2017-09-22T09:20:38.786Z,20.32
2017-09-22T09:21:38.801Z,20.4
2017-09-22T09:22:38.830Z,20.55
2017-09-22T09:23:39.162Z,20.67
2017-09-22T09:24:38.885Z,20.72
2017-09-22T09:25:38.900Z,20.72
2017-09-22T09:26:38.935Z,20.87
2017-09-22T09:27:38.961Z,21.02
2017-09-22T09:28:38.979Z,21.18
2017-09-22T09:29:39.322Z,21.35
2017-09-22T09:30:39.124Z,21.43
2017-09-22T09:31:39.049Z,21.39
2017-09-22T09:32:39.081Z,21.27
2017-09-22T09:33:39.102Z,21.32
2017-09-22T09:34:39.135Z,21.29
2017-09-22T09:35:39.155Z,21.4
2017-09-22T09:36:39.177Z,21.46
2017-09-22T09:37:39.205Z,21.62
2017-09-22T09:38:39.233Z,21.72
2017-09-22T09:39:39.262Z,21.93
2017-09-22T09:40:39.281Z,22.14
2017-09-22T09:41:39.306Z,22.15
2017-09-22T09:42:39.330Z,22.13
2017-09-22T09:43:39.362Z,22.13
2017-09-22T09:44:39.384Z,22.11
2017-09-22T09:45:39.468Z,22.29
2017-09-22T09:46:39.749Z,22.45
2017-09-22T09:47:39.464Z,22.18
2017-09-22T09:48:39.484Z,21.72
2017-09-22T09:49:39.514Z,21.46
2017-09-22T09:50:39.537Z,21.15
2017-09-22T09:51:39.568Z,21.2
2017-09-22T09:52:39.587Z,21.12
2017-09-22T09:53:39.930Z,21.27
2017-09-22T09:54:39.659Z,21.52
2017-09-22T09:55:39.676Z,21.66
2017-09-22T09:56:39.700Z,21.77
2017-09-22T09:57:39.721Z,21.91
2017-09-22T09:58:39.754Z,21.99
2017-09-22T09:59:39.769Z,21.92
2017-09-22T10:00:39.793Z,21.83
2017-09-22T10:01:39.866Z,21.85
2017-09-22T10:02:39.854Z,21.8
2017-09-22T10:03:39.893Z,21.79
2017-09-22T10:04:39.900Z,21.43
2017-09-22T10:05:40.241Z,21.39
2017-09-22T10:06:40.271Z,21.3
2017-09-22T10:07:39.978Z,21.32
2017-09-22T10:08:40.323Z,21.15
2017-09-22T10:09:40.359Z,21.15
2017-09-22T10:10:40.045Z,21.24
2017-09-22T10:11:40.074Z,21.27
2017-09-22T10:12:40.098Z,21.54
2017-09-22T10:13:40.123Z,21.6
2017-09-22T10:14:40.147Z,21.7
2017-09-22T10:15:40.170Z,21.76
2017-09-22T10:16:40.196Z,21.8
2017-09-22T10:17:40.424Z,21.79
2017-09-22T10:18:40.248Z,21.48
2017-09-22T10:19:40.270Z,21.43
2017-09-22T10:20:40.298Z,21.33
2017-09-22T10:21:40.326Z,21.24
2017-09-22T10:22:40.660Z,21.35
2017-09-22T10:23:40.377Z,21.46
2017-09-22T10:24:40.396Z,21.73
2017-09-22T10:25:40.426Z,21.67
2017-09-22T10:26:40.455Z,21.91
2017-09-22T10:27:40.483Z,21.82
2017-09-22T10:28:40.498Z,21.8
2017-09-22T10:29:40.531Z,22.02
2017-09-22T10:30:40.553Z,21.99
2017-09-22T10:31:40.574Z,21.93
2017-09-22T10:32:40.610Z,22.04
2017-09-22T10:33:40.627Z,22.22
2017-09-22T10:34:40.738Z,22.45
2017-09-22T10:35:40.675Z,22.44
2017-09-22T10:36:40.704Z,22.63
2017-09-22T10:37:40.733Z,22.75
2017-09-22T10:38:40.765Z,22.83
2017-09-22T10:39:40.784Z,22.94
2017-09-22T10:40:40.810Z,23.06
2017-09-22T10:41:40.832Z,23.12
2017-09-22T10:42:40.868Z,23.23
2017-09-22T10:43:40.893Z,23.23
2017-09-22T10:44:40.913Z,23.27
2017-09-22T10:45:41.248Z,23.32
2017-09-22T10:46:40.963Z,23.36
2017-09-22T10:47:40.997Z,23.39
2017-09-22T10:48:41.017Z,23.4
2017-09-22T10:49:41.044Z,23.23
2017-09-22T10:50:41.117Z,23.23
2017-09-22T10:51:41.098Z,23.24
2017-09-22T10:52:41.119Z,23.27
2017-09-22T10:53:41.149Z,23.31
2017-09-22T10:54:41.173Z,23.32
2017-09-22T10:55:41.220Z,23.28
2017-09-22T10:56:41.224Z,23.39
2017-09-22T10:57:41.248Z,23.44
2017-09-22T10:58:41.281Z,23.59
2017-09-22T10:59:41.624Z,23.69
2017-09-22T11:00:41.331Z,23.88
2017-09-22T11:01:41.355Z,23.98
2017-09-22T11:02:41.388Z,24.13
2017-09-22T11:03:41.411Z,24.13
2017-09-22T11:04:41.434Z,24.2
2017-09-22T11:05:41.832Z,24.13
2017-09-22T11:06:41.485Z,24.03
2017-09-22T11:07:41.841Z,24.01
2017-09-22T11:08:41.552Z,23.88
2017-09-22T11:09:41.583Z,23.93
2017-09-22T11:10:41.596Z,23.84
2017-09-22T11:11:41.625Z,23.83
2017-09-22T11:12:41.649Z,23.92
2017-09-22T11:13:41.803Z,23.96
2017-09-22T11:14:41.708Z,24.02
2017-09-22T11:15:41.733Z,23.95
2017-09-22T11:16:41.759Z,24.14
2017-09-22T11:17:41.785Z,24.28
2017-09-22T11:18:41.812Z,24.76
2017-09-22T11:19:41.844Z,25.07
2017-09-22T11:20:41.872Z,25.31
2017-09-22T11:21:41.896Z,25.48
2017-09-22T11:22:41.932Z,25.7
2017-09-22T11:23:41.948Z,25.96
2017-09-22T11:24:41.978Z,26
2017-09-22T11:25:42.012Z,26.15
2017-09-22T11:26:42.035Z,26.31
2017-09-22T11:27:42.064Z,26.25
2017-09-22T11:28:42.092Z,26.16
2017-09-22T11:29:42.121Z,26.02
2017-09-22T11:30:42.175Z,26.4
2017-09-22T11:31:42.183Z,26.77
2017-09-22T11:32:42.208Z,26.85
2017-09-22T11:33:42.235Z,27.05
2017-09-22T11:34:42.267Z,27.29
2017-09-22T11:35:42.605Z,27.15
2017-09-22T11:36:42.326Z,27.15
2017-09-22T11:37:42.675Z,27.65
2017-09-22T11:38:42.441Z,27.83
2017-09-22T11:39:42.736Z,28.22
2017-09-22T11:40:42.444Z,28.56
2017-09-22T11:41:42.487Z,28.93
2017-09-22T11:42:42.507Z,29.24
2017-09-22T11:43:42.536Z,29.29
2017-09-22T11:44:42.568Z,29.35
2017-09-22T11:45:42.603Z,29.34
2017-09-22T11:46:42.625Z,29.75
2017-09-22T11:47:42.663Z,30.13
2017-09-22T11:48:42.693Z,30.4
2017-09-22T11:49:43.036Z,30.47
2017-09-22T11:50:42.753Z,30.57
2017-09-22T11:51:42.791Z,30.51
2017-09-22T11:52:42.829Z,30.78
2017-09-22T11:53:42.900Z,30.97
2017-09-22T11:54:42.880Z,31.05
2017-09-22T11:55:42.914Z,31.22
2017-09-22T11:56:42.950Z,31.2
2017-09-22T11:57:42.978Z,31
2017-09-22T11:58:43.012Z,30.57
2017-09-22T11:59:43.047Z,30.35
2017-09-22T12:00:43.076Z,30.27
2017-09-22T12:01:43.103Z,30.44
2017-09-22T12:02:43.142Z,30.43
2017-09-22T12:03:43.218Z,30.48
2017-09-22T12:04:43.203Z,30.53
2017-09-22T12:05:43.238Z,30.37
2017-09-22T12:06:43.261Z,30.28
2017-09-22T12:07:43.610Z,30.16
2017-09-22T12:08:43.373Z,30.19
2017-09-22T12:09:43.356Z,30.18
2017-09-22T12:10:43.388Z,30.24
2017-09-22T12:11:43.734Z,30.24
2017-09-22T12:12:43.445Z,30.21
2017-09-22T12:13:43.477Z,30.32
2017-09-22T12:14:43.509Z,30.25
2017-09-22T12:15:43.547Z,30.24
2017-09-22T12:16:43.577Z,30.27
2017-09-22T12:17:43.599Z,30.25
2017-09-22T12:18:43.635Z,30.28
2017-09-22T12:19:43.663Z,30.18
2017-09-22T12:20:43.694Z,30.1
2017-09-22T12:21:43.721Z,29.88
2017-09-22T12:22:43.756Z,29.36
2017-09-22T12:23:43.783Z,28.96
2017-09-22T12:24:43.813Z,28.74
2017-09-22T12:25:43.856Z,28.66
2017-09-22T12:26:43.926Z,28.3
2017-09-22T12:27:43.902Z,28.22
2017-09-22T12:28:43.942Z,28.11
2017-09-22T12:29:43.958Z,28.37
2017-09-22T12:30:43.983Z,28.52
2017-09-22T12:31:44.018Z,28.74
2017-09-22T12:32:44.359Z,28.91
2017-09-22T12:33:44.075Z,29.12
2017-09-22T12:34:44.115Z,29.12
2017-09-22T12:35:44.150Z,29.07
2017-09-22T12:36:44.214Z,29.02
2017-09-22T12:37:44.199Z,29.12
2017-09-22T12:38:44.218Z,29.04
2017-09-22T12:39:44.253Z,29.04
2017-09-22T12:40:44.276Z,28.93
2017-09-22T12:41:44.358Z,28.89
2017-09-22T12:42:44.646Z,28.91
2017-09-22T12:43:44.376Z,28.96
2017-09-22T12:44:44.410Z,29.01
2017-09-22T12:45:44.425Z,29.07
2017-09-22T12:46:44.459Z,29.1
2017-09-22T12:47:44.789Z,29.24
2017-09-22T12:48:44.513Z,29.41
2017-09-22T12:49:44.538Z,29.39
2017-09-22T12:50:44.573Z,29.51
2017-09-22T12:51:44.603Z,29.71
2017-09-22T12:52:44.631Z,29.78
2017-09-22T12:53:44.658Z,29.78
2017-09-22T12:54:44.684Z,29.84
2017-09-22T12:55:44.711Z,29.98
2017-09-22T12:56:44.797Z,30.1